Check out our new PWSWeather beta!
PWSweather.com
Personal Weather Stations
Station Observations
ROSEGARDEN
Rose Garden, Brentwood, CA 94513

Rose GardenBrentwood, CA 94513

Lat: 37.967503, Lon: -121.721004

Elevation: 89

Station Type: Davis Vantage Vue

High Low Average
Temperature 88.2°F31.2°C 59.4°F15.2°C 73.4°F23.0°C
Dew Point 63.0°F17.2°C 56.0°F13.3°C 59.0°F15.0°C
Winds 9.3 mph 15.0 kmh Calm Calm 3.0 mph SSW4.8 kmh SSW
Wind Gusts 18.0 mph29.0 kmh -- 7.0 mph11.3 kmh
Humidity 88% 40% 63%
Pressure 29.95 in1014.2 mb 29.86 in1011.2 mb -
Precipitation 0.00 in0.0 mm - -
Hour Temp Dew Point Humidity Winds Wind Gusts Pressure Precip Precip Rate Daily Precip Total
12:00 AM 68.2°F20.1°C 58.0°F14.4°C 70% 1.0 mph NNW1.6 kmh NNW 3.0 mph4.8 kmh 29.86 in1011.2 mb 0.00 in0.0 mm 0.00 in0.0 mm 0.00 in0.0 mm
12:10 AM 67.6°F19.8°C 58.0°F14.4°C 71% 1.4 mph NNW2.3 kmh NNW 3.0 mph4.8 kmh 29.86 in1011.2 mb 0.00 in0.0 mm 0.00 in0.0 mm 0.00 in0.0 mm
12:20 AM 67.3°F19.6°C 58.0°F14.4°C 72% 1.1 mph NW1.8 kmh NW 4.0 mph6.4 kmh 29.86 in1011.2 mb 0.00 in0.0 mm 0.00 in0.0 mm 0.00 in0.0 mm
12:30 AM 66.8°F19.3°C 58.0°F14.4°C 73% 1.6 mph NW2.6 kmh NW 4.0 mph6.4 kmh 29.86 in1011.2 mb 0.00 in0.0 mm 0.00 in0.0 mm 0.00 in0.0 mm
12:40 AM 66.3°F19.1°C 57.0°F13.9°C 73% 2.1 mph WNW3.4 kmh WNW 5.0 mph8.0 kmh 29.86 in1011.2 mb 0.00 in0.0 mm 0.00 in0.0 mm 0.00 in0.0 mm
12:50 AM 65.7°F18.7°C 57.0°F13.9°C 73% 2.1 mph NW3.4 kmh NW 6.0 mph9.7 kmh 29.86 in1011.2 mb 0.00 in0.0 mm 0.00 in0.0 mm 0.00 in0.0 mm
01:00 AM 65.2°F18.4°C 57.0°F13.9°C 75% 2.0 mph NW3.2 kmh NW 6.0 mph9.7 kmh 29.86 in1011.2 mb 0.00 in0.0 mm 0.00 in0.0 mm 0.00 in0.0 mm
01:10 AM 64.9°F18.3°C 57.0°F13.9°C 76% 1.2 mph N1.9 kmh N 5.0 mph8.0 kmh 29.86 in1011.2 mb 0.00 in0.0 mm 0.00 in0.0 mm 0.00 in0.0 mm
01:20 AM 64.6°F18.1°C 57.0°F13.9°C 77% 1.3 mph NNW2.1 kmh NNW 4.0 mph6.4 kmh 29.86 in1011.2 mb 0.00 in0.0 mm 0.00 in0.0 mm 0.00 in0.0 mm
01:30 AM 64.7°F18.2°C 57.0°F13.9°C 77% 2.0 mph N3.2 kmh N 5.0 mph8.0 kmh 29.86 in1011.2 mb 0.00 in0.0 mm 0.00 in0.0 mm 0.00 in0.0 mm
01:40 AM 64.7°F18.2°C 57.0°F13.9°C 77% 1.6 mph N2.6 kmh N 4.0 mph6.4 kmh 29.86 in1011.2 mb 0.00 in0.0 mm 0.00 in0.0 mm 0.00 in0.0 mm
01:50 AM 64.6°F18.1°C 58.0°F14.4°C 78% 0.3 mph N0.5 kmh N 2.0 mph3.2 kmh 29.86 in1011.2 mb 0.00 in0.0 mm 0.00 in0.0 mm 0.00 in0.0 mm
02:00 AM 64.4°F18.0°C 57.0°F13.9°C 78% 0.2 mph N0.3 kmh N 2.0 mph3.2 kmh 29.86 in1011.2 mb 0.00 in0.0 mm 0.00 in0.0 mm 0.00 in0.0 mm
02:10 AM 64.2°F17.9°C 58.0°F14.4°C 79% Calm Calm -- 29.87 in1011.5 mb 0.00 in0.0 mm 0.00 in0.0 mm 0.00 in0.0 mm
02:20 AM 63.6°F17.6°C 57.0°F13.9°C 79% Calm Calm -- 29.87 in1011.5 mb 0.00 in0.0 mm 0.00 in0.0 mm 0.00 in0.0 mm
02:30 AM 63.1°F17.3°C 57.0°F13.9°C 81% Calm Calm 1.0 mph1.6 kmh 29.88 in1011.9 mb 0.00 in0.0 mm 0.00 in0.0 mm 0.00 in0.0 mm
02:40 AM 63.0°F17.2°C 57.0°F13.9°C 81% Calm Calm -- 29.88 in1011.9 mb 0.00 in0.0 mm 0.00 in0.0 mm 0.00 in0.0 mm
02:50 AM 62.6°F17.0°C 57.0°F13.9°C 81% Calm Calm -- 29.88 in1011.9 mb 0.00 in0.0 mm 0.00 in0.0 mm 0.00 in0.0 mm
03:00 AM 62.4°F16.9°C 57.0°F13.9°C 82% Calm Calm -- 29.88 in1011.9 mb 0.00 in0.0 mm 0.00 in0.0 mm 0.00 in0.0 mm
03:10 AM 62.1°F16.7°C 57.0°F13.9°C 82% 0.7 mph S1.1 kmh S 1.0 mph1.6 kmh 29.88 in1011.9 mb 0.00 in0.0 mm 0.00 in0.0 mm 0.00 in0.0 mm
03:20 AM 61.9°F16.6°C 57.0°F13.9°C 83% 0.4 mph SE0.6 kmh SE 2.0 mph3.2 kmh 29.88 in1011.9 mb 0.00 in0.0 mm 0.00 in0.0 mm 0.00 in0.0 mm
03:30 AM 61.7°F16.5°C 57.0°F13.9°C 83% 0.2 mph SSW0.3 kmh SSW 1.0 mph1.6 kmh 29.88 in1011.9 mb 0.00 in0.0 mm 0.00 in0.0 mm 0.00 in0.0 mm
03:40 AM 61.6°F16.4°C 57.0°F13.9°C 84% 0.1 mph SW0.2 kmh SW 1.0 mph1.6 kmh 29.89 in1012.2 mb 0.00 in0.0 mm 0.00 in0.0 mm 0.00 in0.0 mm
03:50 AM 61.3°F16.3°C 57.0°F13.9°C 84% Calm Calm 1.0 mph1.6 kmh 29.89 in1012.2 mb 0.00 in0.0 mm 0.00 in0.0 mm 0.00 in0.0 mm
04:00 AM 61.1°F16.2°C 56.0°F13.3°C 84% Calm Calm -- 29.89 in1012.2 mb 0.00 in0.0 mm 0.00 in0.0 mm 0.00 in0.0 mm
04:10 AM 61.0°F16.1°C 57.0°F13.9°C 85% Calm Calm 2.0 mph3.2 kmh 29.89 in1012.2 mb 0.00 in0.0 mm 0.00 in0.0 mm 0.00 in0.0 mm
04:20 AM 61.0°F16.1°C 57.0°F13.9°C 85% 0.6 mph SSE1.0 kmh SSE 1.0 mph1.6 kmh 29.89 in1012.2 mb 0.00 in0.0 mm 0.00 in0.0 mm 0.00 in0.0 mm
04:30 AM 60.8°F16.0°C 56.0°F13.3°C 85% Calm Calm -- 29.90 in1012.5 mb 0.00 in0.0 mm 0.00 in0.0 mm 0.00 in0.0 mm
04:40 AM 60.5°F15.8°C 56.0°F13.3°C 85% Calm Calm -- 29.90 in1012.5 mb 0.00 in0.0 mm 0.00 in0.0 mm 0.00 in0.0 mm
04:50 AM 60.2°F15.7°C 56.0°F13.3°C 86% Calm Calm -- 29.90 in1012.5 mb 0.00 in0.0 mm 0.00 in0.0 mm 0.00 in0.0 mm
05:00 AM 59.9°F15.5°C 56.0°F13.3°C 87% Calm Calm -- 29.90 in1012.5 mb 0.00 in0.0 mm 0.00 in0.0 mm 0.00 in0.0 mm
05:10 AM 59.4°F15.2°C 56.0°F13.3°C 87% Calm Calm -- 29.91 in1012.9 mb 0.00 in0.0 mm 0.00 in0.0 mm 0.00 in0.0 mm
05:20 AM 59.9°F15.5°C 56.0°F13.3°C 88% Calm Calm -- 29.91 in1012.9 mb 0.00 in0.0 mm 0.00 in0.0 mm 0.00 in0.0 mm
05:30 AM 60.7°F15.9°C 57.0°F13.9°C 88% Calm Calm -- 29.91 in1012.9 mb 0.00 in0.0 mm 0.00 in0.0 mm 0.00 in0.0 mm
05:40 AM 62.0°F16.7°C 58.0°F14.4°C 85% 0.2 mph SW0.3 kmh SW 2.0 mph3.2 kmh 29.91 in1012.9 mb 0.00 in0.0 mm 0.00 in0.0 mm 0.00 in0.0 mm
05:50 AM 63.4°F17.4°C 58.0°F14.4°C 82% 0.1 mph WSW0.2 kmh WSW 2.0 mph3.2 kmh 29.92 in1013.2 mb 0.00 in0.0 mm 0.00 in0.0 mm 0.00 in0.0 mm
06:00 AM 65.4°F18.6°C 58.0°F14.4°C 78% 0.5 mph SSE0.8 kmh SSE 1.0 mph1.6 kmh 29.92 in1013.2 mb 0.00 in0.0 mm 0.00 in0.0 mm 0.00 in0.0 mm
06:10 AM 65.8°F18.8°C 58.0°F14.4°C 77% 1.1 mph E1.8 kmh E 2.0 mph3.2 kmh 29.92 in1013.2 mb 0.00 in0.0 mm 0.00 in0.0 mm 0.00 in0.0 mm
06:20 AM 66.4°F19.1°C 58.0°F14.4°C 75% 0.3 mph W0.5 kmh W 1.0 mph1.6 kmh 29.93 in1013.5 mb 0.00 in0.0 mm 0.00 in0.0 mm 0.00 in0.0 mm
06:30 AM 66.8°F19.3°C 59.0°F15.0°C 75% 0.7 mph N1.1 kmh N 2.0 mph3.2 kmh 29.93 in1013.5 mb 0.00 in0.0 mm 0.00 in0.0 mm 0.00 in0.0 mm
06:40 AM 67.3°F19.6°C 58.0°F14.4°C 73% 0.3 mph N0.5 kmh N 1.0 mph1.6 kmh 29.93 in1013.5 mb 0.00 in0.0 mm 0.00 in0.0 mm 0.00 in0.0 mm
06:50 AM 68.1°F20.1°C 59.0°F15.0°C 72% 0.6 mph E1.0 kmh E 4.0 mph6.4 kmh 29.93 in1013.5 mb 0.00 in0.0 mm 0.00 in0.0 mm 0.00 in0.0 mm
07:00 AM 69.8°F21.0°C 59.0°F15.0°C 68% 0.2 mph E0.3 kmh E 1.0 mph1.6 kmh 29.93 in1013.5 mb 0.00 in0.0 mm 0.00 in0.0 mm 0.00 in0.0 mm
07:10 AM 69.6°F20.9°C 59.0°F15.0°C 69% 1.1 mph NE1.8 kmh NE 2.0 mph3.2 kmh 29.93 in1013.5 mb 0.00 in0.0 mm 0.00 in0.0 mm 0.00 in0.0 mm
07:20 AM 71.2°F21.8°C 59.0°F15.0°C 65% Calm Calm 2.0 mph3.2 kmh 29.94 in1013.9 mb 0.00 in0.0 mm 0.00 in0.0 mm 0.00 in0.0 mm
07:30 AM 71.0°F21.7°C 59.0°F15.0°C 66% 1.1 mph ESE1.8 kmh ESE 2.0 mph3.2 kmh 29.94 in1013.9 mb 0.00 in0.0 mm 0.00 in0.0 mm 0.00 in0.0 mm
07:40 AM 72.8°F22.7°C 60.0°F15.6°C 64% 0.3 mph NNE0.5 kmh NNE 2.0 mph3.2 kmh 29.95 in1014.2 mb 0.00 in0.0 mm 0.00 in0.0 mm 0.00 in0.0 mm
07:50 AM 73.6°F23.1°C 59.0°F15.0°C 61% 0.4 mph N0.6 kmh N 2.0 mph3.2 kmh 29.95 in1014.2 mb 0.00 in0.0 mm 0.00 in0.0 mm 0.00 in0.0 mm
08:00 AM 73.1°F22.8°C 59.0°F15.0°C 61% 1.0 mph W1.6 kmh W 4.0 mph6.4 kmh 29.95 in1014.2 mb 0.00 in0.0 mm 0.00 in0.0 mm 0.00 in0.0 mm
08:10 AM 73.6°F23.1°C 59.0°F15.0°C 60% 0.7 mph NNW1.1 kmh NNW 3.0 mph4.8 kmh 29.95 in1014.2 mb 0.00 in0.0 mm 0.00 in0.0 mm 0.00 in0.0 mm
08:20 AM 73.5°F23.1°C 59.0°F15.0°C 60% 0.8 mph S1.3 kmh S 4.0 mph6.4 kmh 29.95 in1014.2 mb 0.00 in0.0 mm 0.00 in0.0 mm 0.00 in0.0 mm
08:30 AM 74.9°F23.8°C 59.0°F15.0°C 58% 0.6 mph SW1.0 kmh SW 3.0 mph4.8 kmh 29.95 in1014.2 mb 0.00 in0.0 mm 0.00 in0.0 mm 0.00 in0.0 mm
08:40 AM 77.1°F25.1°C 60.0°F15.6°C 55% 0.6 mph SSE1.0 kmh SSE 3.0 mph4.8 kmh 29.95 in1014.2 mb 0.00 in0.0 mm 0.00 in0.0 mm 0.00 in0.0 mm
08:50 AM 76.2°F24.6°C 60.0°F15.6°C 58% 1.6 mph E2.6 kmh E 5.0 mph8.0 kmh 29.95 in1014.2 mb 0.00 in0.0 mm 0.00 in0.0 mm 0.00 in0.0 mm
09:00 AM 76.5°F24.7°C 61.0°F16.1°C 58% 1.6 mph NNW2.6 kmh NNW 5.0 mph8.0 kmh 29.95 in1014.2 mb 0.00 in0.0 mm 0.00 in0.0 mm 0.00 in0.0 mm
09:10 AM 75.6°F24.2°C 60.0°F15.6°C 58% 1.9 mph W3.1 kmh W 5.0 mph8.0 kmh 29.95 in1014.2 mb 0.00 in0.0 mm 0.00 in0.0 mm 0.00 in0.0 mm
09:20 AM 75.8°F24.3°C 60.0°F15.6°C 59% 2.4 mph NE3.9 kmh NE 5.0 mph8.0 kmh 29.95 in1014.2 mb 0.00 in0.0 mm 0.00 in0.0 mm 0.00 in0.0 mm
09:30 AM 76.0°F24.4°C 60.0°F15.6°C 58% 3.2 mph NE5.1 kmh NE 7.0 mph11.3 kmh 29.95 in1014.2 mb 0.00 in0.0 mm 0.00 in0.0 mm 0.00 in0.0 mm
09:40 AM 76.4°F24.7°C 61.0°F16.1°C 60% 2.7 mph NE4.3 kmh NE 7.0 mph11.3 kmh 29.95 in1014.2 mb 0.00 in0.0 mm 0.00 in0.0 mm 0.00 in0.0 mm
09:50 AM 77.5°F25.3°C 62.0°F16.7°C 59% 2.8 mph N4.5 kmh N 6.0 mph9.7 kmh 29.95 in1014.2 mb 0.00 in0.0 mm 0.00 in0.0 mm 0.00 in0.0 mm
10:00 AM 77.8°F25.4°C 63.0°F17.2°C 60% 4.6 mph N7.4 kmh N 7.0 mph11.3 kmh 29.95 in1014.2 mb 0.00 in0.0 mm 0.00 in0.0 mm 0.00 in0.0 mm
10:10 AM 78.1°F25.6°C 62.0°F16.7°C 59% 3.0 mph NE4.8 kmh NE 8.0 mph12.9 kmh 29.95 in1014.2 mb 0.00 in0.0 mm 0.00 in0.0 mm 0.00 in0.0 mm
10:20 AM 78.2°F25.7°C 62.0°F16.7°C 57% 3.4 mph NE5.5 kmh NE 8.0 mph12.9 kmh 29.95 in1014.2 mb 0.00 in0.0 mm 0.00 in0.0 mm 0.00 in0.0 mm
10:30 AM 79.0°F26.1°C 61.0°F16.1°C 55% 2.9 mph E4.7 kmh E 8.0 mph12.9 kmh 29.95 in1014.2 mb 0.00 in0.0 mm 0.00 in0.0 mm 0.00 in0.0 mm
10:40 AM 79.8°F26.6°C 62.0°F16.7°C 54% 1.7 mph NW2.7 kmh NW 5.0 mph8.0 kmh 29.95 in1014.2 mb 0.00 in0.0 mm 0.00 in0.0 mm 0.00 in0.0 mm
10:50 AM 79.6°F26.4°C 61.0°F16.1°C 54% 3.7 mph E6.0 kmh E 9.0 mph14.5 kmh 29.95 in1014.2 mb 0.00 in0.0 mm 0.00 in0.0 mm 0.00 in0.0 mm
11:00 AM 81.8°F27.7°C 62.0°F16.7°C 51% 1.8 mph NW2.9 kmh NW 5.0 mph8.0 kmh 29.95 in1014.2 mb 0.00 in0.0 mm 0.00 in0.0 mm 0.00 in0.0 mm
11:10 AM 81.3°F27.4°C 61.0°F16.1°C 50% 3.1 mph NE5.0 kmh NE 9.0 mph14.5 kmh 29.95 in1014.2 mb 0.00 in0.0 mm 0.00 in0.0 mm 0.00 in0.0 mm
11:20 AM 82.3°F27.9°C 61.0°F16.1°C 49% 2.2 mph NE3.5 kmh NE 8.0 mph12.9 kmh 29.95 in1014.2 mb 0.00 in0.0 mm 0.00 in0.0 mm 0.00 in0.0 mm
11:30 AM 83.2°F28.4°C 61.0°F16.1°C 47% 2.3 mph N3.7 kmh N 6.0 mph9.7 kmh 29.95 in1014.2 mb 0.00 in0.0 mm 0.00 in0.0 mm 0.00 in0.0 mm
11:40 AM 84.3°F29.1°C 62.0°F16.7°C 47% 3.6 mph NNE5.8 kmh NNE 8.0 mph12.9 kmh 29.95 in1014.2 mb 0.00 in0.0 mm 0.00 in0.0 mm 0.00 in0.0 mm
11:50 AM 83.9°F28.8°C 62.0°F16.7°C 47% 3.8 mph ENE6.1 kmh ENE 8.0 mph12.9 kmh 29.94 in1013.9 mb 0.00 in0.0 mm 0.00 in0.0 mm 0.00 in0.0 mm
12:00 PM 83.3°F28.5°C 62.0°F16.7°C 48% 4.8 mph ENE7.7 kmh ENE 9.0 mph14.5 kmh 29.94 in1013.9 mb 0.00 in0.0 mm 0.00 in0.0 mm 0.00 in0.0 mm
12:10 PM 86.0°F30.0°C 62.0°F16.7°C 44% 4.2 mph W6.8 kmh W 9.0 mph14.5 kmh 29.94 in1013.9 mb 0.00 in0.0 mm 0.00 in0.0 mm 0.00 in0.0 mm
12:20 PM 86.4°F30.2°C 63.0°F17.2°C 45% 2.5 mph E4.0 kmh E 6.0 mph9.7 kmh 29.94 in1013.9 mb 0.00 in0.0 mm 0.00 in0.0 mm 0.00 in0.0 mm
12:30 PM 87.4°F30.8°C 61.0°F16.1°C 41% 2.8 mph W4.5 kmh W 10.0 mph16.1 kmh 29.93 in1013.5 mb 0.00 in0.0 mm 0.00 in0.0 mm 0.00 in0.0 mm
12:40 PM 87.6°F30.9°C 62.0°F16.7°C 42% 4.7 mph WNW7.6 kmh WNW 9.0 mph14.5 kmh 29.93 in1013.5 mb 0.00 in0.0 mm 0.00 in0.0 mm 0.00 in0.0 mm
12:50 PM 86.7°F30.4°C 62.0°F16.7°C 43% 6.0 mph WSW9.7 kmh WSW 11.0 mph17.7 kmh 29.93 in1013.5 mb 0.00 in0.0 mm 0.00 in0.0 mm 0.00 in0.0 mm
01:00 PM 85.8°F29.9°C 61.0°F16.1°C 43% 5.9 mph WSW9.5 kmh WSW 11.0 mph17.7 kmh 29.93 in1013.5 mb 0.00 in0.0 mm 0.00 in0.0 mm 0.00 in0.0 mm
01:10 PM 86.3°F30.2°C 61.0°F16.1°C 43% 5.2 mph SW8.4 kmh SW 10.0 mph16.1 kmh 29.93 in1013.5 mb 0.00 in0.0 mm 0.00 in0.0 mm 0.00 in0.0 mm
01:20 PM 86.7°F30.4°C 62.0°F16.7°C 43% 5.7 mph W9.2 kmh W 14.0 mph22.5 kmh 29.93 in1013.5 mb 0.00 in0.0 mm 0.00 in0.0 mm 0.00 in0.0 mm
01:30 PM 86.2°F30.1°C 61.0°F16.1°C 43% 6.4 mph W10.3 kmh W 14.0 mph22.5 kmh 29.93 in1013.5 mb 0.00 in0.0 mm 0.00 in0.0 mm 0.00 in0.0 mm
01:40 PM 86.5°F30.3°C 61.0°F16.1°C 43% 6.6 mph WSW10.6 kmh WSW 11.0 mph17.7 kmh 29.93 in1013.5 mb 0.00 in0.0 mm 0.00 in0.0 mm 0.00 in0.0 mm
01:50 PM 86.1°F30.1°C 61.0°F16.1°C 43% 7.1 mph WSW11.4 kmh WSW 14.0 mph22.5 kmh 29.92 in1013.2 mb 0.00 in0.0 mm 0.00 in0.0 mm 0.00 in0.0 mm
02:00 PM 87.1°F30.6°C 61.0°F16.1°C 42% 5.1 mph WSW8.2 kmh WSW 11.0 mph17.7 kmh 29.92 in1013.2 mb 0.00 in0.0 mm 0.00 in0.0 mm 0.00 in0.0 mm
02:10 PM 86.7°F30.4°C 61.0°F16.1°C 42% 5.6 mph WSW9.0 kmh WSW 12.0 mph19.3 kmh 29.92 in1013.2 mb 0.00 in0.0 mm 0.00 in0.0 mm 0.00 in0.0 mm
02:20 PM 87.4°F30.8°C 61.0°F16.1°C 41% 4.3 mph W6.9 kmh W 9.0 mph14.5 kmh 29.92 in1013.2 mb 0.00 in0.0 mm 0.00 in0.0 mm 0.00 in0.0 mm
02:30 PM 88.2°F31.2°C 62.0°F16.7°C 41% 3.7 mph W6.0 kmh W 11.0 mph17.7 kmh 29.91 in1012.9 mb 0.00 in0.0 mm 0.00 in0.0 mm 0.00 in0.0 mm
02:40 PM 87.9°F31.1°C 61.0°F16.1°C 40% 4.4 mph WSW7.1 kmh WSW 12.0 mph19.3 kmh 29.91 in1012.9 mb 0.00 in0.0 mm 0.00 in0.0 mm 0.00 in0.0 mm
02:50 PM 87.2°F30.7°C 61.0°F16.1°C 41% 5.4 mph SW8.7 kmh SW 12.0 mph19.3 kmh 29.91 in1012.9 mb 0.00 in0.0 mm 0.00 in0.0 mm 0.00 in0.0 mm
03:00 PM 87.5°F30.8°C 62.0°F16.7°C 42% 5.6 mph WSW9.0 kmh WSW 12.0 mph19.3 kmh 29.91 in1012.9 mb 0.00 in0.0 mm 0.00 in0.0 mm 0.00 in0.0 mm
03:10 PM 86.9°F30.5°C 61.0°F16.1°C 42% 6.0 mph SW9.7 kmh SW 12.0 mph19.3 kmh 29.91 in1012.9 mb 0.00 in0.0 mm 0.00 in0.0 mm 0.00 in0.0 mm
03:20 PM 85.7°F29.8°C 61.0°F16.1°C 43% 8.4 mph SW13.5 kmh SW 15.0 mph24.1 kmh 29.91 in1012.9 mb 0.00 in0.0 mm 0.00 in0.0 mm 0.00 in0.0 mm
03:30 PM 84.7°F29.3°C 61.0°F16.1°C 45% 8.5 mph W13.7 kmh W 15.0 mph24.1 kmh 29.91 in1012.9 mb 0.00 in0.0 mm 0.00 in0.0 mm 0.00 in0.0 mm
03:40 PM 83.9°F28.8°C 60.0°F15.6°C 45% 8.7 mph WSW14.0 kmh WSW 17.0 mph27.4 kmh 29.90 in1012.5 mb 0.00 in0.0 mm 0.00 in0.0 mm 0.00 in0.0 mm
03:50 PM 83.2°F28.4°C 60.0°F15.6°C 46% 9.0 mph SW14.5 kmh SW 15.0 mph24.1 kmh 29.90 in1012.5 mb 0.00 in0.0 mm 0.00 in0.0 mm 0.00 in0.0 mm
04:00 PM 83.3°F28.5°C 60.0°F15.6°C 46% 8.6 mph WNW13.8 kmh WNW 15.0 mph24.1 kmh 29.90 in1012.5 mb 0.00 in0.0 mm 0.00 in0.0 mm 0.00 in0.0 mm
04:10 PM 83.2°F28.4°C 60.0°F15.6°C 46% 8.0 mph WSW12.9 kmh WSW 15.0 mph24.1 kmh 29.90 in1012.5 mb 0.00 in0.0 mm 0.00 in0.0 mm 0.00 in0.0 mm
04:20 PM 82.7°F28.2°C 60.0°F15.6°C 46% 8.5 mph SSW13.7 kmh SSW 15.0 mph24.1 kmh 29.90 in1012.5 mb 0.00 in0.0 mm 0.00 in0.0 mm 0.00 in0.0 mm
04:30 PM 82.4°F28.0°C 60.0°F15.6°C 47% 7.9 mph WSW12.7 kmh WSW 14.0 mph22.5 kmh 29.90 in1012.5 mb 0.00 in0.0 mm 0.00 in0.0 mm 0.00 in0.0 mm
04:40 PM 82.6°F28.1°C 60.0°F15.6°C 46% 7.6 mph WSW12.2 kmh WSW 14.0 mph22.5 kmh 29.90 in1012.5 mb 0.00 in0.0 mm 0.00 in0.0 mm 0.00 in0.0 mm
04:50 PM 82.0°F27.8°C 60.0°F15.6°C 48% 8.0 mph SW12.9 kmh SW 16.0 mph25.7 kmh 29.90 in1012.5 mb 0.00 in0.0 mm 0.00 in0.0 mm 0.00 in0.0 mm
05:00 PM 81.5°F27.5°C 60.0°F15.6°C 48% 8.1 mph SW13.0 kmh SW 17.0 mph27.4 kmh 29.90 in1012.5 mb 0.00 in0.0 mm 0.00 in0.0 mm 0.00 in0.0 mm
05:10 PM 80.2°F26.8°C 60.0°F15.6°C 50% 9.3 mph SW15.0 kmh SW 18.0 mph29.0 kmh 29.90 in1012.5 mb 0.00 in0.0 mm 0.00 in0.0 mm 0.00 in0.0 mm
05:20 PM 80.0°F26.7°C 60.0°F15.6°C 50% 8.4 mph WSW13.5 kmh WSW 15.0 mph24.1 kmh 29.89 in1012.2 mb 0.00 in0.0 mm 0.00 in0.0 mm 0.00 in0.0 mm
05:30 PM 79.5°F26.4°C 60.0°F15.6°C 51% 7.0 mph WSW11.3 kmh WSW 16.0 mph25.7 kmh 29.89 in1012.2 mb 0.00 in0.0 mm 0.00 in0.0 mm 0.00 in0.0 mm
05:40 PM 78.9°F26.1°C 60.0°F15.6°C 52% 7.9 mph SSW12.7 kmh SSW 17.0 mph27.4 kmh 29.89 in1012.2 mb 0.00 in0.0 mm 0.00 in0.0 mm 0.00 in0.0 mm
05:50 PM 78.5°F25.8°C 59.0°F15.0°C 52% 8.0 mph WSW12.9 kmh WSW 16.0 mph25.7 kmh 29.89 in1012.2 mb 0.00 in0.0 mm 0.00 in0.0 mm 0.00 in0.0 mm
06:00 PM 78.2°F25.7°C 60.0°F15.6°C 53% 6.7 mph SW10.8 kmh SW 14.0 mph22.5 kmh 29.89 in1012.2 mb 0.00 in0.0 mm 0.00 in0.0 mm 0.00 in0.0 mm
06:10 PM 78.4°F25.8°C 59.0°F15.0°C 52% 5.6 mph W9.0 kmh W 10.0 mph16.1 kmh 29.89 in1012.2 mb 0.00 in0.0 mm 0.00 in0.0 mm 0.00 in0.0 mm
06:20 PM 78.1°F25.6°C 59.0°F15.0°C 53% 5.9 mph WSW9.5 kmh WSW 12.0 mph19.3 kmh 29.89 in1012.2 mb 0.00 in0.0 mm 0.00 in0.0 mm 0.00 in0.0 mm
06:30 PM 77.1°F25.1°C 59.0°F15.0°C 54% 6.3 mph WSW10.1 kmh WSW 12.0 mph19.3 kmh 29.89 in1012.2 mb 0.00 in0.0 mm 0.00 in0.0 mm 0.00 in0.0 mm
06:40 PM 76.5°F24.7°C 59.0°F15.0°C 55% 6.6 mph W10.6 kmh W 12.0 mph19.3 kmh 29.89 in1012.2 mb 0.00 in0.0 mm 0.00 in0.0 mm 0.00 in0.0 mm
06:50 PM 75.2°F24.0°C 59.0°F15.0°C 57% 6.5 mph WSW10.5 kmh WSW 13.0 mph20.9 kmh 29.90 in1012.5 mb 0.00 in0.0 mm 0.00 in0.0 mm 0.00 in0.0 mm
07:00 PM 74.2°F23.4°C 58.0°F14.4°C 58% 6.6 mph WSW10.6 kmh WSW 12.0 mph19.3 kmh 29.90 in1012.5 mb 0.00 in0.0 mm 0.00 in0.0 mm 0.00 in0.0 mm
07:10 PM 73.4°F23.0°C 58.0°F14.4°C 59% 5.8 mph SW9.3 kmh SW 11.0 mph17.7 kmh 29.90 in1012.5 mb 0.00 in0.0 mm 0.00 in0.0 mm 0.00 in0.0 mm
07:20 PM 72.5°F22.5°C 58.0°F14.4°C 60% 7.5 mph SW12.1 kmh SW 15.0 mph24.1 kmh 29.90 in1012.5 mb 0.00 in0.0 mm 0.00 in0.0 mm 0.00 in0.0 mm
07:30 PM 71.9°F22.2°C 57.0°F13.9°C 60% 6.7 mph SW10.8 kmh SW 13.0 mph20.9 kmh 29.90 in1012.5 mb 0.00 in0.0 mm 0.00 in0.0 mm 0.00 in0.0 mm
07:40 PM 71.2°F21.8°C 57.0°F13.9°C 62% 7.2 mph W11.6 kmh W 14.0 mph22.5 kmh 29.90 in1012.5 mb 0.00 in0.0 mm 0.00 in0.0 mm 0.00 in0.0 mm
07:50 PM 70.7°F21.5°C 57.0°F13.9°C 62% 7.5 mph SW12.1 kmh SW 13.0 mph20.9 kmh 29.90 in1012.5 mb 0.00 in0.0 mm 0.00 in0.0 mm 0.00 in0.0 mm
08:00 PM 70.4°F21.3°C 57.0°F13.9°C 63% 6.2 mph WNW10.0 kmh WNW 12.0 mph19.3 kmh 29.91 in1012.9 mb 0.00 in0.0 mm 0.00 in0.0 mm 0.00 in0.0 mm
08:10 PM 70.1°F21.2°C 57.0°F13.9°C 64% 5.4 mph SW8.7 kmh SW 13.0 mph20.9 kmh 29.91 in1012.9 mb 0.00 in0.0 mm 0.00 in0.0 mm 0.00 in0.0 mm
08:20 PM 69.7°F20.9°C 57.0°F13.9°C 65% 4.2 mph SW6.8 kmh SW 11.0 mph17.7 kmh 29.91 in1012.9 mb 0.00 in0.0 mm 0.00 in0.0 mm 0.00 in0.0 mm
08:30 PM 69.4°F20.8°C 57.0°F13.9°C 66% 5.3 mph SW8.5 kmh SW 10.0 mph16.1 kmh 29.92 in1013.2 mb 0.00 in0.0 mm 0.00 in0.0 mm 0.00 in0.0 mm
08:40 PM 69.1°F20.6°C 58.0°F14.4°C 67% 5.3 mph WSW8.5 kmh WSW 11.0 mph17.7 kmh 29.92 in1013.2 mb 0.00 in0.0 mm 0.00 in0.0 mm 0.00 in0.0 mm
08:50 PM 69.1°F20.6°C 58.0°F14.4°C 67% 5.0 mph WSW8.0 kmh WSW 11.0 mph17.7 kmh 29.92 in1013.2 mb 0.00 in0.0 mm 0.00 in0.0 mm 0.00 in0.0 mm
09:00 PM 68.8°F20.4°C 58.0°F14.4°C 68% 5.3 mph SW8.5 kmh SW 12.0 mph19.3 kmh 29.92 in1013.2 mb 0.00 in0.0 mm 0.00 in0.0 mm 0.00 in0.0 mm
09:10 PM 68.5°F20.3°C 58.0°F14.4°C 69% 6.4 mph SW10.3 kmh SW 12.0 mph19.3 kmh 29.92 in1013.2 mb 0.00 in0.0 mm 0.00 in0.0 mm 0.00 in0.0 mm
09:20 PM 68.3°F20.2°C 58.0°F14.4°C 70% 5.7 mph SSW9.2 kmh SSW 11.0 mph17.7 kmh 29.92 in1013.2 mb 0.00 in0.0 mm 0.00 in0.0 mm 0.00 in0.0 mm
09:30 PM 68.1°F20.1°C 58.0°F14.4°C 70% 6.5 mph SW10.5 kmh SW 11.0 mph17.7 kmh 29.92 in1013.2 mb 0.00 in0.0 mm 0.00 in0.0 mm 0.00 in0.0 mm
09:40 PM 68.3°F20.2°C 58.0°F14.4°C 70% 5.9 mph SW9.5 kmh SW 12.0 mph19.3 kmh 29.92 in1013.2 mb 0.00 in0.0 mm 0.00 in0.0 mm 0.00 in0.0 mm
09:50 PM 68.7°F20.4°C 58.0°F14.4°C 69% 5.6 mph WSW9.0 kmh WSW 12.0 mph19.3 kmh 29.92 in1013.2 mb 0.00 in0.0 mm 0.00 in0.0 mm 0.00 in0.0 mm
10:00 PM 68.8°F20.4°C 58.0°F14.4°C 69% 5.1 mph WSW8.2 kmh WSW 9.0 mph14.5 kmh 29.92 in1013.2 mb 0.00 in0.0 mm 0.00 in0.0 mm 0.00 in0.0 mm
10:10 PM 68.9°F20.5°C 58.0°F14.4°C 69% 4.5 mph W7.2 kmh W 9.0 mph14.5 kmh 29.92 in1013.2 mb 0.00 in0.0 mm 0.00 in0.0 mm 0.00 in0.0 mm
10:20 PM 69.1°F20.6°C 58.0°F14.4°C 68% 5.2 mph W8.4 kmh W 11.0 mph17.7 kmh 29.92 in1013.2 mb 0.00 in0.0 mm 0.00 in0.0 mm 0.00 in0.0 mm
10:30 PM 69.1°F20.6°C 58.0°F14.4°C 68% 4.0 mph W6.4 kmh W 9.0 mph14.5 kmh 29.92 in1013.2 mb 0.00 in0.0 mm 0.00 in0.0 mm 0.00 in0.0 mm
10:40 PM 69.2°F20.7°C 58.0°F14.4°C 67% 4.5 mph SW7.2 kmh SW 8.0 mph12.9 kmh 29.92 in1013.2 mb 0.00 in0.0 mm 0.00 in0.0 mm 0.00 in0.0 mm
10:50 PM 69.1°F20.6°C 58.0°F14.4°C 67% 3.1 mph WSW5.0 kmh WSW 7.0 mph11.3 kmh 29.92 in1013.2 mb 0.00 in0.0 mm 0.00 in0.0 mm 0.00 in0.0 mm
11:00 PM 69.0°F20.6°C 58.0°F14.4°C 68% 3.0 mph W4.8 kmh W 7.0 mph11.3 kmh 29.93 in1013.5 mb 0.00 in0.0 mm 0.00 in0.0 mm 0.00 in0.0 mm
11:10 PM 68.9°F20.5°C 58.0°F14.4°C 68% 3.0 mph WSW4.8 kmh WSW 6.0 mph9.7 kmh 29.92 in1013.2 mb 0.00 in0.0 mm 0.00 in0.0 mm 0.00 in0.0 mm
11:20 PM 68.7°F20.4°C 58.0°F14.4°C 68% 2.0 mph WSW3.2 kmh WSW 5.0 mph8.0 kmh 29.92 in1013.2 mb 0.00 in0.0 mm 0.00 in0.0 mm 0.00 in0.0 mm
11:30 PM 68.4°F20.2°C 58.0°F14.4°C 69% 1.0 mph SW1.6 kmh SW 3.0 mph4.8 kmh 29.93 in1013.5 mb 0.00 in0.0 mm 0.00 in0.0 mm 0.00 in0.0 mm
11:40 PM 68.1°F20.1°C 58.0°F14.4°C 70% Calm Calm -- 29.93 in1013.5 mb 0.00 in0.0 mm 0.00 in0.0 mm 0.00 in0.0 mm
11:50 PM 67.7°F19.8°C 58.0°F14.4°C 70% Calm Calm -- 29.92 in1013.2 mb 0.00 in0.0 mm 0.00 in0.0 mm 0.00 in0.0 mm